createdAt,value
2018-07-16T00:00:07.506Z,18.00
2018-07-16T00:02:34.757Z,17.90
2018-07-16T00:05:02.020Z,17.90
2018-07-16T00:09:56.619Z,17.80
2018-07-16T00:12:23.932Z,17.80
2018-07-16T00:14:51.162Z,17.70
2018-07-16T00:17:18.445Z,17.80
2018-07-16T00:24:40.554Z,17.70
2018-07-16T00:27:07.945Z,17.70
2018-07-16T00:29:35.259Z,17.70
2018-07-16T00:32:02.625Z,17.80
2018-07-16T00:34:29.901Z,17.70
2018-07-16T00:36:57.179Z,17.80
2018-07-16T00:39:24.556Z,17.80
2018-07-16T00:41:51.808Z,17.80
2018-07-16T00:44:19.203Z,17.80
2018-07-16T00:46:46.489Z,17.70
2018-07-16T00:49:13.767Z,17.70
2018-07-16T00:51:41.048Z,17.70
2018-07-16T00:54:08.307Z,17.70
2018-07-16T00:56:35.605Z,17.70
2018-07-16T00:59:02.924Z,17.70
2018-07-16T01:01:30.285Z,17.70
2018-07-16T01:03:57.568Z,17.70
2018-07-16T01:06:25.305Z,17.70
2018-07-16T01:08:52.588Z,17.60
2018-07-16T01:11:19.878Z,17.60
2018-07-16T01:13:47.108Z,17.60
2018-07-16T01:16:14.539Z,17.60
2018-07-16T01:18:41.784Z,17.60
2018-07-16T01:21:09.125Z,17.60
2018-07-16T01:23:36.586Z,17.60
2018-07-16T01:26:03.949Z,17.60
2018-07-16T01:28:31.256Z,17.60
2018-07-16T01:30:58.535Z,17.60
2018-07-16T01:33:25.841Z,17.60
2018-07-16T01:35:53.106Z,17.60
2018-07-16T01:38:20.399Z,17.50
2018-07-16T01:40:47.696Z,17.50
2018-07-16T01:43:14.984Z,17.40
2018-07-16T01:45:42.241Z,17.40
2018-07-16T01:48:09.508Z,17.50
2018-07-16T01:50:36.772Z,17.50
2018-07-16T01:53:04.031Z,17.50
2018-07-16T01:55:31.295Z,17.60
2018-07-16T01:57:58.596Z,17.60
2018-07-16T02:00:25.865Z,17.70
2018-07-16T02:02:53.147Z,17.70
2018-07-16T02:05:20.437Z,17.70
2018-07-16T02:07:47.732Z,17.70
2018-07-16T02:10:15.000Z,17.70
2018-07-16T02:12:42.248Z,17.60
2018-07-16T02:15:09.547Z,17.60
2018-07-16T02:20:05.593Z,17.60
2018-07-16T02:22:32.872Z,17.60
2018-07-16T02:25:00.194Z,17.60
2018-07-16T02:27:27.490Z,17.70
2018-07-16T02:29:54.808Z,17.70
2018-07-16T02:32:22.105Z,17.70
2018-07-16T02:34:49.353Z,17.70
2018-07-16T02:37:16.612Z,17.70
2018-07-16T02:39:43.866Z,17.70
2018-07-16T02:42:11.158Z,17.80
2018-07-16T02:44:38.472Z,17.80
2018-07-16T02:49:33.024Z,17.80
2018-07-16T02:52:00.465Z,17.90
2018-07-16T02:56:55.012Z,17.80
2018-07-16T02:59:22.309Z,17.80
2018-07-16T03:01:49.532Z,17.80
2018-07-16T03:06:44.097Z,17.80
2018-07-16T03:09:11.361Z,17.80
2018-07-16T03:11:38.708Z,17.80
2018-07-16T03:14:06.001Z,17.80
2018-07-16T03:16:33.264Z,17.80
2018-07-16T03:19:00.563Z,17.80
2018-07-16T03:21:27.836Z,17.90
2018-07-16T03:23:55.076Z,17.90
2018-07-16T03:26:22.406Z,17.80
2018-07-16T03:28:49.685Z,17.90
2018-07-16T03:31:16.997Z,17.90
2018-07-16T03:33:44.268Z,17.80
2018-07-16T03:36:11.643Z,17.80
2018-07-16T03:38:38.937Z,17.80
2018-07-16T03:41:06.225Z,17.80
2018-07-16T03:43:33.512Z,17.80
2018-07-16T03:46:00.806Z,17.70
2018-07-16T03:48:28.070Z,17.80
2018-07-16T03:50:55.403Z,17.80
2018-07-16T03:53:22.689Z,17.90
2018-07-16T03:55:49.922Z,17.90
2018-07-16T03:58:17.278Z,17.80
2018-07-16T04:00:44.556Z,17.80
2018-07-16T04:03:11.820Z,17.70
2018-07-16T04:05:39.083Z,17.70
2018-07-16T04:08:06.417Z,17.80
2018-07-16T04:13:01.032Z,17.90
2018-07-16T04:15:28.321Z,17.90
2018-07-16T04:17:55.589Z,17.90
2018-07-16T04:20:22.923Z,17.90
2018-07-16T04:22:50.176Z,18.00
2018-07-16T04:25:17.459Z,18.00
2018-07-16T04:27:44.738Z,17.90
2018-07-16T04:30:12.535Z,18.00
2018-07-16T04:32:39.801Z,18.00
2018-07-16T04:35:07.153Z,18.00
2018-07-16T04:40:01.956Z,18.10
2018-07-16T04:42:29.140Z,18.00
2018-07-16T04:44:56.430Z,18.00
2018-07-16T04:47:23.699Z,18.00
2018-07-16T04:49:50.972Z,18.00
2018-07-16T04:52:18.657Z,18.00
2018-07-16T04:54:45.941Z,18.10
2018-07-16T04:57:13.201Z,18.10
2018-07-16T04:59:40.489Z,18.20
2018-07-16T05:02:07.784Z,18.20
2018-07-16T05:07:02.455Z,18.20
2018-07-16T05:09:29.696Z,18.20
2018-07-16T05:11:56.924Z,18.20
2018-07-16T05:14:24.176Z,18.20
2018-07-16T05:16:51.429Z,18.20
2018-07-16T05:19:18.861Z,18.20
2018-07-16T05:24:13.442Z,18.30
2018-07-16T05:26:40.697Z,18.30
2018-07-16T05:29:07.966Z,18.30
2018-07-16T05:31:35.330Z,18.40
2018-07-16T05:34:02.568Z,18.30
2018-07-16T05:41:24.444Z,18.30
2018-07-16T05:43:51.724Z,18.40
2018-07-16T05:48:46.224Z,18.40
2018-07-16T05:51:13.509Z,18.40
2018-07-16T05:53:40.803Z,18.40
2018-07-16T05:56:08.101Z,18.30
2018-07-16T05:58:35.345Z,18.20
2018-07-16T06:01:02.694Z,18.30
2018-07-16T06:03:29.997Z,18.40
2018-07-16T06:05:57.332Z,18.50
2018-07-16T06:08:24.646Z,18.50
2018-07-16T06:10:51.896Z,18.50
2018-07-16T06:13:19.192Z,18.60
2018-07-16T06:15:47.133Z,18.50
2018-07-16T06:18:14.722Z,18.50
2018-07-16T06:20:42.016Z,18.60
2018-07-16T06:23:09.507Z,18.60
2018-07-16T06:28:04.605Z,18.80
2018-07-16T06:30:31.832Z,18.80
2018-07-16T06:32:59.156Z,18.70
2018-07-16T06:35:26.441Z,18.80
2018-07-16T06:37:53.708Z,19.00
2018-07-16T06:40:21.180Z,19.10
2018-07-16T06:42:48.320Z,19.20
2018-07-16T06:45:16.394Z,19.20
2018-07-16T06:47:43.764Z,19.90
2018-07-16T06:50:11.065Z,19.10
2018-07-16T06:55:06.200Z,19.30
2018-07-16T06:57:33.633Z,19.30
2018-07-16T07:00:00.912Z,19.40
2018-07-16T07:02:28.192Z,19.40
2018-07-16T07:04:55.477Z,19.50
2018-07-16T07:07:22.801Z,19.60
2018-07-16T07:09:50.099Z,19.70
2018-07-16T07:12:17.376Z,19.70
2018-07-16T07:14:44.628Z,19.80
2018-07-16T07:17:12.021Z,19.80
2018-07-16T07:24:34.017Z,19.80
2018-07-16T07:29:28.564Z,19.80
2018-07-16T07:31:55.943Z,19.70
2018-07-16T07:34:23.300Z,19.70
2018-07-16T07:36:50.573Z,19.70
2018-07-16T07:39:17.867Z,19.70
2018-07-16T07:41:45.165Z,19.60
2018-07-16T07:44:12.431Z,19.70
2018-07-16T07:46:39.865Z,19.70
2018-07-16T07:49:07.156Z,20.10
2018-07-16T07:51:34.454Z,19.80
2018-07-16T07:56:29.000Z,19.80
2018-07-16T07:58:56.243Z,19.80
2018-07-16T08:06:18.409Z,19.90
2018-07-16T08:08:45.733Z,20.00
2018-07-16T08:11:13.063Z,19.90
2018-07-16T08:13:40.482Z,20.00
2018-07-16T08:16:07.871Z,20.00
2018-07-16T08:18:35.164Z,20.00
2018-07-16T08:21:02.472Z,20.10
2018-07-16T08:23:29.789Z,20.20
2018-07-16T08:25:57.152Z,20.20
2018-07-16T08:28:24.443Z,20.10
2018-07-16T08:30:51.716Z,20.10
2018-07-16T08:33:19.000Z,20.20
2018-07-16T08:35:46.308Z,20.20
2018-07-16T08:38:13.630Z,20.20
2018-07-16T08:40:40.943Z,20.20
2018-07-16T08:43:08.246Z,20.20
2018-07-16T08:45:35.541Z,20.20
2018-07-16T08:48:02.855Z,20.30
2018-07-16T08:50:31.032Z,20.20
2018-07-16T08:52:58.397Z,20.30
2018-07-16T08:55:25.669Z,20.30
2018-07-16T08:57:52.927Z,20.30
2018-07-16T09:00:20.203Z,20.30
2018-07-16T09:02:47.701Z,20.30
2018-07-16T09:05:15.032Z,20.30
2018-07-16T09:07:42.261Z,20.30
2018-07-16T09:10:10.805Z,20.40
2018-07-16T09:12:38.129Z,20.40
2018-07-16T09:15:05.486Z,20.30
2018-07-16T09:17:32.777Z,20.20
2018-07-16T09:20:00.077Z,20.30
2018-07-16T09:22:27.805Z,20.40
2018-07-16T09:24:55.057Z,20.40
2018-07-16T09:27:22.316Z,20.40
2018-07-16T09:29:49.566Z,20.40
2018-07-16T09:32:17.595Z,20.50
2018-07-16T09:34:45.370Z,20.60
2018-07-16T09:37:12.714Z,20.60
2018-07-16T09:42:07.445Z,20.80
2018-07-16T09:44:34.802Z,20.90
2018-07-16T09:47:02.065Z,20.80
2018-07-16T09:49:29.621Z,21.10
2018-07-16T09:51:56.985Z,21.30
2018-07-16T09:54:24.244Z,21.30
2018-07-16T09:56:51.480Z,21.20
2018-07-16T09:59:18.744Z,21.30
2018-07-16T10:01:50.695Z,21.40
2018-07-16T10:06:45.393Z,21.60
2018-07-16T10:09:12.813Z,21.80
2018-07-16T10:11:40.186Z,21.90
2018-07-16T10:14:07.554Z,22.00
2018-07-16T10:16:34.787Z,22.00
2018-07-16T10:19:02.496Z,22.00
2018-07-16T10:21:29.745Z,22.00
2018-07-16T10:23:57.056Z,22.10
2018-07-16T10:26:24.348Z,22.30
2018-07-16T10:28:51.631Z,22.50
2018-07-16T10:31:18.889Z,22.50
2018-07-16T10:33:46.429Z,22.60
2018-07-16T10:36:13.886Z,22.70
2018-07-16T10:38:41.204Z,22.70
2018-07-16T10:41:08.473Z,22.80
2018-07-16T10:48:30.690Z,22.70
2018-07-16T10:50:57.972Z,22.60
2018-07-16T10:53:25.212Z,22.60
2018-07-16T10:55:52.497Z,22.50
2018-07-16T10:58:19.770Z,22.50
2018-07-16T11:00:47.030Z,22.40
2018-07-16T11:03:14.280Z,22.40
2018-07-16T11:05:41.572Z,22.40
2018-07-16T11:08:08.840Z,22.40
2018-07-16T11:10:36.129Z,22.50
2018-07-16T11:13:05.609Z,22.50
2018-07-16T11:15:32.921Z,22.50
2018-07-16T11:18:00.164Z,22.50
2018-07-16T11:20:27.440Z,22.60
2018-07-16T11:22:54.696Z,22.70
2018-07-16T11:25:21.977Z,22.70
2018-07-16T11:27:49.246Z,22.70
2018-07-16T11:30:18.297Z,22.70
2018-07-16T11:32:45.606Z,22.60
2018-07-16T11:35:13.228Z,22.70
2018-07-16T11:37:40.495Z,22.90
2018-07-16T11:42:35.190Z,23.20
2018-07-16T11:45:02.488Z,23.30
2018-07-16T11:47:29.781Z,23.40
2018-07-16T11:49:57.346Z,23.40
2018-07-16T11:54:51.848Z,23.40
2018-07-16T11:57:19.111Z,23.60
2018-07-16T11:59:46.353Z,23.60
2018-07-16T12:02:13.623Z,23.60
2018-07-16T12:04:41.163Z,23.70
2018-07-16T12:07:08.593Z,23.90
2018-07-16T12:09:35.861Z,24.00
2018-07-16T12:12:03.125Z,24.00
2018-07-16T12:14:30.457Z,24.00
2018-07-16T12:16:57.724Z,24.00
2018-07-16T12:19:24.961Z,23.90
2018-07-16T12:21:52.211Z,24.00
2018-07-16T12:26:46.728Z,24.20
2018-07-16T12:29:13.988Z,24.30
2018-07-16T12:31:41.278Z,24.30
2018-07-16T12:36:35.780Z,24.10
2018-07-16T12:39:04.302Z,24.20
2018-07-16T12:41:31.744Z,24.40
2018-07-16T12:43:58.832Z,24.40
2018-07-16T12:46:28.494Z,24.50
2018-07-16T12:48:56.089Z,24.50
2018-07-16T12:51:23.549Z,24.30
2018-07-16T12:53:50.871Z,24.30
2018-07-16T12:56:18.244Z,24.20
2018-07-16T12:58:45.801Z,24.10
2018-07-16T13:03:40.432Z,23.90
2018-07-16T13:06:07.798Z,24.10
2018-07-16T13:08:35.020Z,24.20
2018-07-16T13:11:02.297Z,24.30
2018-07-16T13:13:29.532Z,24.40
2018-07-16T13:15:56.911Z,24.50
2018-07-16T13:18:24.221Z,24.50
2018-07-16T13:23:18.879Z,24.50
2018-07-16T13:25:46.140Z,24.60
2018-07-16T13:28:13.469Z,24.60
2018-07-16T13:30:41.290Z,24.60
2018-07-16T13:33:08.649Z,24.60
2018-07-16T13:35:35.887Z,24.70
2018-07-16T13:38:03.338Z,24.90
2018-07-16T13:40:30.696Z,24.90
2018-07-16T13:42:57.951Z,24.90
2018-07-16T13:45:25.258Z,25.00
2018-07-16T13:47:52.525Z,25.00
2018-07-16T13:50:19.919Z,25.00
2018-07-16T13:52:47.912Z,25.00
2018-07-16T13:55:15.076Z,24.90
2018-07-16T13:57:42.372Z,24.80
2018-07-16T14:00:09.668Z,24.80
2018-07-16T14:02:36.968Z,24.90
2018-07-16T14:05:05.112Z,24.90
2018-07-16T14:07:32.482Z,25.00
2018-07-16T14:09:59.715Z,25.00
2018-07-16T14:12:27.135Z,25.00
2018-07-16T14:14:54.367Z,25.00
2018-07-16T14:17:21.660Z,25.10
2018-07-16T14:19:49.257Z,25.10
2018-07-16T14:22:16.998Z,25.20
2018-07-16T14:24:44.362Z,25.30
2018-07-16T14:27:11.876Z,25.30
2018-07-16T14:29:39.621Z,25.30
2018-07-16T14:32:07.292Z,25.50
2018-07-16T14:34:34.528Z,25.50
2018-07-16T14:37:01.782Z,25.50
2018-07-16T14:39:29.984Z,25.60
2018-07-16T14:41:57.450Z,25.60
2018-07-16T14:44:24.792Z,25.60
2018-07-16T14:46:52.039Z,25.70
2018-07-16T14:49:19.319Z,25.70
2018-07-16T14:51:47.681Z,25.80
2018-07-16T14:54:16.104Z,25.70
2018-07-16T14:56:43.477Z,25.60
2018-07-16T14:59:10.781Z,25.60
2018-07-16T15:01:38.183Z,25.70
2018-07-16T15:04:05.700Z,25.50
2018-07-16T15:06:33.104Z,25.70
2018-07-16T15:09:00.429Z,25.70
2018-07-16T15:11:27.729Z,25.70
2018-07-16T15:13:55.141Z,25.70
2018-07-16T15:16:22.383Z,25.70
2018-07-16T15:18:49.645Z,25.70
2018-07-16T15:21:17.387Z,25.70
2018-07-16T15:26:11.704Z,25.90
2018-07-16T15:28:39.042Z,25.80
2018-07-16T15:31:06.319Z,25.80
2018-07-16T15:33:33.670Z,25.80
2018-07-16T15:36:00.915Z,25.80
2018-07-16T15:38:28.207Z,25.90
2018-07-16T15:40:55.573Z,25.90
2018-07-16T15:43:22.919Z,25.80
2018-07-16T15:48:17.603Z,25.80
2018-07-16T15:53:12.201Z,25.80
2018-07-16T15:55:39.518Z,25.80
2018-07-16T15:58:06.828Z,25.90
2018-07-16T16:00:34.884Z,25.90
2018-07-16T16:03:02.672Z,25.60
2018-07-16T16:05:30.021Z,26.10
2018-07-16T16:07:57.340Z,26.10
2018-07-16T16:10:24.800Z,26.10
2018-07-16T16:12:52.096Z,26.20
2018-07-16T16:15:19.440Z,26.20
2018-07-16T16:17:47.154Z,26.10
2018-07-16T16:20:14.680Z,26.00
2018-07-16T16:25:09.364Z,26.00
2018-07-16T16:27:36.687Z,26.00
2018-07-16T16:32:31.931Z,25.40
2018-07-16T16:35:00.077Z,25.20
2018-07-16T16:37:27.461Z,25.10
2018-07-16T16:39:54.825Z,25.00
2018-07-16T16:42:22.280Z,24.80
2018-07-16T16:44:49.572Z,24.90
2018-07-16T16:47:18.047Z,24.80
2018-07-16T16:49:45.365Z,24.70
2018-07-16T16:52:12.805Z,24.90
2018-07-16T16:54:40.173Z,24.80
2018-07-16T16:57:07.486Z,24.70
2018-07-16T16:59:34.870Z,24.70
2018-07-16T17:02:02.246Z,24.80
2018-07-16T17:04:29.645Z,24.60
2018-07-16T17:06:56.964Z,24.30
2018-07-16T17:09:24.498Z,24.20
2018-07-16T17:11:52.256Z,24.00
2018-07-16T17:14:19.537Z,24.00
2018-07-16T17:19:14.795Z,23.90
2018-07-16T17:21:42.191Z,23.90
2018-07-16T17:24:09.516Z,23.80
2018-07-16T17:26:36.841Z,23.80
2018-07-16T17:29:04.314Z,23.70
2018-07-16T17:31:31.642Z,23.70
2018-07-16T17:33:58.952Z,23.60
2018-07-16T17:36:26.277Z,23.60
2018-07-16T17:38:53.633Z,23.60
2018-07-16T17:43:48.276Z,23.60
2018-07-16T17:46:15.754Z,23.50
2018-07-16T17:48:43.161Z,23.50
2018-07-16T17:51:10.497Z,23.60
2018-07-16T17:53:37.864Z,23.60
2018-07-16T17:58:32.544Z,23.50
2018-07-16T18:00:59.816Z,23.60
2018-07-16T18:03:27.163Z,23.50
2018-07-16T18:05:54.508Z,23.50
2018-07-16T18:08:21.890Z,23.60
2018-07-16T18:10:49.177Z,23.60
2018-07-16T18:13:17.087Z,23.50
2018-07-16T18:15:44.561Z,23.50
2018-07-16T18:20:40.347Z,23.50
2018-07-16T18:23:07.722Z,23.40
2018-07-16T18:30:29.787Z,23.40
2018-07-16T18:35:24.477Z,23.40
2018-07-16T18:37:51.733Z,23.40
2018-07-16T18:40:19.116Z,23.40
2018-07-16T18:42:47.201Z,23.30
2018-07-16T18:45:14.589Z,23.20
2018-07-16T18:47:41.969Z,23.00
2018-07-16T18:50:09.442Z,22.90
2018-07-16T18:52:36.823Z,22.70
2018-07-16T18:55:04.942Z,22.60
2018-07-16T18:57:32.298Z,22.50
2018-07-16T18:59:59.616Z,22.40
2018-07-16T19:02:27.032Z,22.30
2018-07-16T19:04:54.315Z,22.20
2018-07-16T19:07:22.667Z,22.20
2018-07-16T19:09:50.337Z,22.10
2018-07-16T19:12:18.028Z,22.10
2018-07-16T19:14:45.856Z,22.10
2018-07-16T19:17:13.353Z,22.00
2018-07-16T19:19:40.708Z,21.90
2018-07-16T19:22:08.557Z,21.80
2018-07-16T19:24:35.977Z,21.70
2018-07-16T19:29:30.709Z,21.30
2018-07-16T19:31:58.075Z,21.20
2018-07-16T19:36:52.872Z,20.90
2018-07-16T19:39:20.166Z,20.70
2018-07-16T19:41:48.013Z,20.70
2018-07-16T19:44:15.653Z,20.70
2018-07-16T19:46:43.136Z,20.70
2018-07-16T19:49:11.751Z,20.70
2018-07-16T19:51:40.256Z,20.60
2018-07-16T19:54:07.635Z,20.50
2018-07-16T19:56:34.966Z,20.50
2018-07-16T19:59:02.348Z,20.50
2018-07-16T20:01:29.682Z,20.40
2018-07-16T20:03:57.015Z,20.20
2018-07-16T20:06:24.427Z,20.10
2018-07-16T20:08:52.856Z,19.90
2018-07-16T20:11:20.168Z,19.80
2018-07-16T20:13:48.702Z,19.70
2018-07-16T20:16:16.377Z,19.70
2018-07-16T20:18:43.751Z,19.60
2018-07-16T20:21:13.447Z,19.50
2018-07-16T20:23:41.118Z,19.60
2018-07-16T20:26:08.788Z,19.50
2018-07-16T20:28:41.686Z,19.60
2018-07-16T20:31:09.394Z,19.50
2018-07-16T20:33:38.030Z,19.30
2018-07-16T20:36:05.636Z,19.20
2018-07-16T20:38:33.133Z,19.20
2018-07-16T20:41:00.772Z,19.00
2018-07-16T20:43:28.158Z,18.70
2018-07-16T20:45:55.898Z,19.10
2018-07-16T20:48:24.668Z,19.30
2018-07-16T20:50:52.130Z,19.10
2018-07-16T20:53:19.535Z,19.00
2018-07-16T20:55:47.741Z,18.90
2018-07-16T20:58:15.334Z,18.80
2018-07-16T21:00:42.850Z,18.80
2018-07-16T21:05:43.481Z,18.50
2018-07-16T21:08:10.983Z,18.50
2018-07-16T21:10:38.432Z,18.50
2018-07-16T21:13:06.121Z,18.50
2018-07-16T21:15:33.561Z,18.40
2018-07-16T21:18:01.048Z,18.40
2018-07-16T21:20:28.454Z,18.30
2018-07-16T21:25:23.251Z,18.10
2018-07-16T21:27:50.499Z,17.90
2018-07-16T21:30:18.028Z,17.90
2018-07-16T21:32:45.921Z,17.70
2018-07-16T21:35:13.840Z,17.70
2018-07-16T21:37:42.298Z,17.70
2018-07-16T21:40:09.753Z,17.60
2018-07-16T21:42:41.652Z,17.50
2018-07-16T21:45:09.229Z,17.60
2018-07-16T21:47:36.820Z,17.60
2018-07-16T21:50:04.858Z,17.10
2018-07-16T21:52:32.247Z,17.40
2018-07-16T21:57:27.633Z,17.10
2018-07-16T21:59:55.002Z,16.90
2018-07-16T22:02:22.381Z,16.90
2018-07-16T22:04:49.665Z,17.00
2018-07-16T22:07:19.633Z,17.00
2018-07-16T22:12:16.490Z,16.80
2018-07-16T22:14:43.837Z,16.80
2018-07-16T22:17:11.140Z,16.80
2018-07-16T22:19:38.648Z,16.70
2018-07-16T22:22:05.985Z,16.70
2018-07-16T22:24:42.744Z,16.80
2018-07-16T22:27:13.232Z,16.90
2018-07-16T22:29:40.724Z,16.50
2018-07-16T22:32:08.173Z,16.90
2018-07-16T22:34:35.601Z,17.00
2018-07-16T22:37:02.916Z,16.90
2018-07-16T22:39:30.590Z,16.80
2018-07-16T22:44:25.549Z,16.60
2018-07-16T22:46:52.898Z,16.90
2018-07-16T22:49:20.268Z,16.90
2018-07-16T22:51:47.972Z,17.00
2018-07-16T22:54:15.410Z,17.00
2018-07-16T23:01:37.389Z,16.90
2018-07-16T23:04:04.798Z,16.90
2018-07-16T23:06:32.124Z,17.00
2018-07-16T23:08:59.397Z,17.00
2018-07-16T23:11:27.478Z,17.10
2018-07-16T23:16:22.132Z,17.20
2018-07-16T23:18:49.872Z,17.10
2018-07-16T23:21:19.119Z,17.10
2018-07-16T23:23:48.770Z,17.10
2018-07-16T23:26:16.267Z,17.00
2018-07-16T23:28:44.435Z,17.00
2018-07-16T23:31:12.458Z,16.90
2018-07-16T23:33:41.097Z,16.70
2018-07-16T23:36:08.682Z,16.70
2018-07-16T23:38:38.346Z,16.00
2018-07-16T23:41:06.543Z,16.70
2018-07-16T23:43:33.992Z,16.70
2018-07-16T23:46:01.351Z,16.70
2018-07-16T23:48:28.722Z,16.50
2018-07-16T23:50:56.407Z,16.60
2018-07-16T23:53:23.747Z,16.70
2018-07-16T23:55:51.034Z,16.70
2018-07-16T23:58:19.444Z,16.70
